地図

経路データ

SID SEASON NUMBER BASIN SUBBASIN NAME ISO_TIME NATURE LAT LON WMO_WIND WMO_PRES WMO_AGENCY TRACK_TYPE DIST2LAND LANDFALL IFLAG USA_AGENCY USA_ATCF_ID USA_LAT USA_LON USA_RECORD USA_STATUS USA_WIND USA_PRES USA_SSHS USA_R34_NE USA_R34_SE USA_R34_SW USA_R34_NW USA_R50_NE USA_R50_SE USA_R50_SW USA_R50_NW USA_R64_NE USA_R64_SE USA_R64_SW USA_R64_NW USA_POCI USA_ROCI USA_RMW USA_EYE TOKYO_LAT TOKYO_LON TOKYO_GRADE TOKYO_WIND TOKYO_PRES TOKYO_R50_DIR TOKYO_R50_LONG TOKYO_R50_SHORT TOKYO_R30_DIR TOKYO_R30_LONG TOKYO_R30_SHORT TOKYO_LAND CMA_LAT CMA_LON CMA_CAT CMA_WIND CMA_PRES HKO_LAT HKO_LON HKO_CAT HKO_WIND HKO_PRES NEWDELHI_LAT NEWDELHI_LON NEWDELHI_GRADE NEWDELHI_WIND NEWDELHI_PRES NEWDELHI_CI NEWDELHI_DP NEWDELHI_POCI REUNION_LAT REUNION_LON REUNION_TYPE REUNION_WIND REUNION_PRES REUNION_TNUM REUNION_CI REUNION_RMW REUNION_R34_NE REUNION_R34_SE REUNION_R34_SW REUNION_R34_NW REUNION_R50_NE REUNION_R50_SE REUNION_R50_SW REUNION_R50_NW REUNION_R64_NE REUNION_R64_SE REUNION_R64_SW REUNION_R64_NW BOM_LAT BOM_LON BOM_TYPE BOM_WIND BOM_PRES BOM_TNUM BOM_CI BOM_RMW BOM_R34_NE BOM_R34_SE BOM_R34_SW BOM_R34_NW BOM_R50_NE BOM_R50_SE BOM_R50_SW BOM_R50_NW BOM_R64_NE BOM_R64_SE BOM_R64_SW BOM_R64_NW BOM_ROCI BOM_POCI BOM_EYE BOM_POS_METHOD BOM_PRES_METHOD NADI_LAT NADI_LON NADI_CAT NADI_WIND NADI_PRES WELLINGTON_LAT WELLINGTON_LON WELLINGTON_WIND WELLINGTON_PRES DS824_LAT DS824_LON DS824_STAGE DS824_WIND DS824_PRES TD9636_LAT TD9636_LON TD9636_STAGE TD9636_WIND TD9636_PRES TD9635_LAT TD9635_LON TD9635_WIND TD9635_PRES TD9635_ROCI NEUMANN_LAT NEUMANN_LON NEUMANN_CLASS NEUMANN_WIND NEUMANN_PRES MLC_LAT MLC_LON MLC_CLASS MLC_WIND MLC_PRES USA_GUST BOM_GUST BOM_GUST_PER REUNION_GUST REUNION_GUST_PER USA_SEAHGT USA_SEARAD_NE USA_SEARAD_SE USA_SEARAD_SW USA_SEARAD_NW STORM_SPEED STORM_DIR
1980219N15258 1980 59 EP MM ISIS 1980-08-05 18:00:00 TS 14.9000 -102.100 25 hurdat_epa main 289 289 O________OO___ hurdat_epa EP091980 14.9000 -102.100 TD 25 -1 14.9000 -102.100 TC 25 14.9000 -102.100 1 25 5 254
1980219N15258 1980 59 EP MM ISIS 1980-08-05 21:00:00 TS 14.8331 -102.338 main 307 307 P________PP___ EP091980 14.8325 -102.335 TD 25 -1 14.8325 -102.335 TC 25 14.8356 -102.350 1 25 5 258
1980219N15258 1980 59 EP MM ISIS 1980-08-06 00:00:00 TS 14.8000 -102.600 25 hurdat_epa main 322 322 O________OO___ hurdat_epa EP091980 14.8000 -102.600 TD 25 -1 14.8000 -102.600 TC 25 14.8000 -102.600 1 25 5 269
1980219N15258 1980 59 EP MM ISIS 1980-08-06 03:00:00 TS 14.8252 -102.896 main 339 336 P________PP___ EP091980 14.8275 -102.907 TD 30 -1 14.8275 -102.907 TC 30 14.8157 -102.850 1 31 6 280
1980219N15258 1980 59 EP MM ISIS 1980-08-06 06:00:00 TS 14.8957 -103.180 35 hurdat_epa main 349 341 O________OP___ hurdat_epa EP091980 14.9000 -103.200 TS 35 0 14.9000 -103.200 TC 35 14.8783 -103.100 1 37 5 288
1980219N15258 1980 59 EP MM ISIS 1980-08-06 09:00:00 TS 14.9833 -103.390 main 345 338 P________PP___ EP091980 14.9849 -103.400 TS 42 0 14.9849 -103.400 TC 42 14.9768 -103.350 1 43 5 297
1980219N15258 1980 59 EP MM ISIS 1980-08-06 12:00:00 TS 15.1000 -103.600 50 hurdat_epa main 341 334 O________OO___ hurdat_epa EP091980 15.1000 -103.600 TS 50 0 15.1000 -103.600 TC 50 15.1000 -103.600 2 50 5 298
1980219N15258 1980 59 EP MM ISIS 1980-08-06 15:00:00 TS 15.2356 -103.888 main 341 327 P________PP___ EP091980 15.2426 -103.900 TS 52 0 15.2426 -103.900 TC 52 15.2079 -103.838 2 52 6 297
1980219N15258 1980 59 EP MM ISIS 1980-08-06 18:00:00 TS 15.3879 -104.176 55 hurdat_epa main 330 324 O________OP___ hurdat_epa EP091980 15.4000 -104.200 TS 55 0 15.4000 -104.200 TC 55 15.3397 -104.078 2 55 6 301
1980219N15258 1980 59 EP MM ISIS 1980-08-06 21:00:00 TS 15.5282 -104.386 main 327 309 P________PP___ EP091980 15.5349 -104.400 TS 57 0 15.5349 -104.400 TC 57 15.5017 -104.329 2 57 5 307
1980219N15258 1980 59 EP MM ISIS 1980-08-07 00:00:00 TS 15.7000 -104.600 60 hurdat_epa main 313 302 O________OO___ hurdat_epa EP091980 15.7000 -104.600 TS 60 0 15.7000 -104.600 TC 60 15.7000 -104.600 2 60 6 310
1980219N15258 1980 59 EP MM ISIS 1980-08-07 03:00:00 TS 15.9265 -104.880 main 307 293 P________PP___ EP091980 15.9275 -104.878 TS 60 0 15.9275 -104.878 TC 60 15.9227 -104.892 2 61 8 311
1980219N15258 1980 59 EP MM ISIS 1980-08-07 06:00:00 TS 16.1965 -105.201 60 hurdat_epa main 296 292 O________OP___ hurdat_epa EP091980 16.2000 -105.200 TS 60 0 16.2000 -105.200 TC 60 16.1823 -105.206 2 62 8 312
1980219N15258 1980 59 EP MM ISIS 1980-08-07 09:00:00 TS 16.4891 -105.536 main 292 292 P________PP___ EP091980 16.4924 -105.535 TS 62 0 16.4924 -105.535 TC 62 16.4757 -105.542 2 63 9 312
1980219N15258 1980 59 EP MM ISIS 1980-08-07 12:00:00 TS 16.8000 -105.900 65 hurdat_epa main 292 277 O________OO___ hurdat_epa EP091980 16.8000 -105.900 HU 65 1 16.8000 -105.900 TC 65 16.8000 -105.900 3 65 9 310
1980219N15258 1980 59 EP MM ISIS 1980-08-07 15:00:00 TS 17.0952 -106.287 main 283 276 P________PP___ EP091980 17.0775 -106.293 HU 67 1 17.0775 -106.293 TC 67 17.1663 -106.266 3 67 10 310
1980219N15258 1980 59 EP MM ISIS 1980-08-07 18:00:00 TS 17.4314 -106.691 70 hurdat_epa main 284 276 O________OP___ hurdat_epa EP091980 17.4000 -106.700 HU 70 1 17.4000 -106.700 TC 70 17.5571 -106.655 3 70 11 316
1980219N15258 1980 59 EP MM ISIS 1980-08-07 21:00:00 TS 17.8747 -107.081 main 276 268 P________PP___ EP091980 17.8573 -107.085 HU 72 1 17.8573 -107.085 TC 72 17.9444 -107.066 3 72 12 318
1980219N15258 1980 59 EP MM ISIS 1980-08-08 00:00:00 TS 18.3000 -107.500 75 hurdat_epa main 279 279 O________OO___ hurdat_epa EP091980 18.3000 -107.500 HU 75 1 18.3000 -107.500 TC 75 18.3000 -107.500 4 75 11 309
1980219N15258 1980 59 EP MM ISIS 1980-08-08 03:00:00 TS 18.5845 -107.988 main 305 305 P________PP___ EP091980 18.5800 -107.993 HU 75 1 18.5800 -107.993 TC 75 18.6023 -107.970 4 76 11 299
1980219N15258 1980 59 EP MM ISIS 1980-08-08 06:00:00 TS 18.8135 -108.492 75 hurdat_epa main 342 342 O________OP___ hurdat_epa EP091980 18.8000 -108.500 HU 75 1 18.8000 -108.500 TC 75 18.8677 -108.458 4 77 10 298
1980219N15258 1980 59 EP MM ISIS 1980-08-08 09:00:00 TS 19.0717 -108.954 main 374 374 P________PP___ EP091980 19.0648 -108.958 HU 77 1 19.0648 -108.958 TC 77 19.0992 -108.942 4 78 10 300
1980219N15258 1980 59 EP MM ISIS 1980-08-08 12:00:00 TS 19.3000 -109.400 80 hurdat_epa main 404 380 O________OO___ hurdat_epa EP091980 19.3000 -109.400 HU 80 1 19.3000 -109.400 TC 80 19.3000 -109.400 4 80 9 295
1980219N15258 1980 59 EP MM ISIS 1980-08-08 15:00:00 TS 19.4669 -109.859 main 380 369 P________PP___ EP091980 19.4650 -109.873 HU 82 1 19.4650 -109.873 TC 82 19.4741 -109.805 4 80 9 290
1980219N15258 1980 59 EP MM ISIS 1980-08-08 18:00:00 TS 19.6044 -110.276 85 hurdat_epa main 370 360 O________OP___ hurdat_epa EP091980 19.6000 -110.300 HU 85 2 19.6000 -110.300 TC 85 19.6218 -110.181 4 80 7 292
1980219N15258 1980 59 EP MM ISIS 1980-08-08 21:00:00 TS 19.7455 -110.589 main 363 345 P________PP___ EP091980 19.7422 -110.600 HU 82 1 19.7422 -110.600 TC 82 19.7586 -110.542 4 80 7 297
1980219N15258 1980 59 EP MM ISIS 1980-08-09 00:00:00 TS 19.9000 -110.900 80 hurdat_epa main 348 340 O________OO___ hurdat_epa EP091980 19.9000 -110.900 HU 80 1 19.9000 -110.900 TC 80 19.9000 -110.900 4 80 8 296
1980219N15258 1980 59 EP MM ISIS 1980-08-09 03:00:00 TS 20.0937 -111.336 main 340 339 P________PP___ EP091980 20.1002 -111.350 HU 77 1 20.1002 -111.350 TC 77 20.0676 -111.279 4 78 9 295
1980219N15258 1980 59 EP MM ISIS 1980-08-09 06:00:00 TS 20.2885 -111.772 75 hurdat_epa main 345 341 O________OP___ hurdat_epa EP091980 20.3000 -111.800 HU 75 1 20.3000 -111.800 TC 75 20.2423 -111.658 4 77 8 296
1980219N15258 1980 59 EP MM ISIS 1980-08-09 09:00:00 TS 20.4439 -112.093 main 353 345 P________PP___ EP091980 20.4497 -112.108 HU 75 1 20.4497 -112.108 TC 75 20.4208 -112.032 4 76 7 298
1980219N15258 1980 59 EP MM ISIS 1980-08-09 12:00:00 TS 20.6000 -112.400 75 hurdat_epa main 357 356 O________OO___ hurdat_epa EP091980 20.6000 -112.400 HU 75 1 20.6000 -112.400 TC 75 20.6000 -112.400 4 75 7 298
1980219N15258 1980 59 EP MM ISIS 1980-08-09 15:00:00 TS 20.7967 -112.793 main 372 372 P________PP___ EP091980 20.8001 -112.800 HU 70 1 20.8001 -112.800 TC 70 20.7829 -112.765 4 71 8 298
1980219N15258 1980 59 EP MM ISIS 1980-08-09 18:00:00 TS 20.9930 -113.185 65 hurdat_epa main 392 392 O________OP___ hurdat_epa EP091980 21.0000 -113.200 HU 65 1 21.0000 -113.200 TC 65 20.9648 -113.123 4 67 8 298
1980219N15258 1980 59 EP MM ISIS 1980-08-09 21:00:00 TS 21.1537 -113.500 main 407 407 P________PP___ EP091980 21.1573 -113.508 HU 62 0 21.1573 -113.508 TC 62 21.1392 -113.468 4 63 7 298
1980219N15258 1980 59 EP MM ISIS 1980-08-10 00:00:00 TS 21.3000 -113.800 60 hurdat_epa main 412 407 O________OO___ hurdat_epa EP091980 21.3000 -113.800 TS 60 0 21.3000 -113.800 TC 60 21.3000 -113.800 2 60 7 297
1980219N15258 1980 59 EP MM ISIS 1980-08-10 03:00:00 TS 21.4579 -114.146 main 409 409 P________PP___ EP091980 21.4576 -114.157 TS 60 0 21.4576 -114.157 TC 60 21.4592 -114.098 2 58 7 295
1980219N15258 1980 59 EP MM ISIS 1980-08-10 06:00:00 TS 21.6003 -114.477 60 hurdat_epa main 424 421 O________OP___ hurdat_epa EP091980 21.6000 -114.500 TS 60 0 21.6000 -114.500 TC 60 21.6017 -114.385 2 57 6 296
1980219N15258 1980 59 EP MM ISIS 1980-08-10 09:00:00 TS 21.7215 -114.724 main 427 425 P________PP___ EP091980 21.7222 -114.735 TS 57 0 21.7222 -114.735 TC 57 21.7185 -114.679 2 56 5 292
1980219N15258 1980 59 EP MM ISIS 1980-08-10 12:00:00 TS 21.8000 -115.000 55 hurdat_epa main 439 439 O________OO___ hurdat_epa EP091980 21.8000 -115.000 TS 55 0 21.8000 -115.000 TC 55 21.8000 -115.000 2 55 7 278
1980219N15258 1980 59 EP MM ISIS 1980-08-10 15:00:00 TS 21.8195 -115.431 main 467 467 P________PP___ EP091980 21.8152 -115.435 TS 50 0 21.8152 -115.435 TC 50 21.8365 -115.412 2 51 8 271
1980219N15258 1980 59 EP MM ISIS 1980-08-10 18:00:00 TS 21.8077 -115.889 45 hurdat_epa main 505 505 O________OP___ hurdat_epa EP091980 21.8000 -115.900 TS 45 0 21.8000 -115.900 TC 45 21.8384 -115.846 2 47 8 269
1980219N15258 1980 59 EP MM ISIS 1980-08-10 21:00:00 TS 21.8042 -116.287 main 536 536 P________PP___ EP091980 21.8000 -116.295 TS 42 0 21.8000 -116.295 TC 42 21.8209 -116.256 2 43 7 269
1980219N15258 1980 59 EP MM ISIS 1980-08-11 00:00:00 TS 21.8000 -116.600 40 hurdat_epa main 560 560 O________OO___ hurdat_epa EP091980 21.8000 -116.600 TS 40 0 21.8000 -116.600 TC 40 21.8000 -116.600 2 40 5 269
1980219N15258 1980 59 EP MM ISIS 1980-08-11 03:00:00 TS 21.7976 -116.793 main 576 576 P________PP___ EP091980 21.7999 -116.780 TS 35 0 21.7999 -116.780 TC 35 21.7886 -116.846 2 37 3 269
1980219N15258 1980 59 EP MM ISIS 1980-08-11 06:00:00 TS 21.7974 -116.922 30 hurdat_epa main 585 585 O________OP___ hurdat_epa EP091980 21.8000 -116.900 TD 30 -1 21.8000 -116.900 TC 30 21.7869 -117.010 2 35 2 270
1980219N15258 1980 59 EP MM ISIS 1980-08-11 09:00:00 TS 21.7984 -117.056 main 602 602 P________PP___ EP091980 21.8001 -117.040 TD 30 -1 21.8001 -117.040 TC 30 21.7918 -117.119 2 32 3 271
1980219N15258 1980 59 EP MM ISIS 1980-08-11 12:00:00 TS 21.8000 -117.200 30 hurdat_epa main 610 O________OO___ hurdat_epa EP091980 21.8000 -117.200 TD 30 -1 21.8000 -117.200 TC 30 21.8000 -117.200 1 30 3 271

IBTrACS Databaseについて

本データベースは、米国NOAAが公開する1842年以降の世界の熱帯低気圧のベストトラックデータアーカイブInternational Best Track Archive for Climate Stewardship (IBTrACS)を、ウェブで閲覧しやすい形式に変換したものです。

最終更新日:2021-12-03